Stockton, Indiana
Current Conditions -  °F | °C
As of 1:55 AM on Thursday 27 Nov 2014 (Local Time) from KDCY Reporting Station
Light Snow Light Snow  
Wind Chill: 23°   Ceiling: 600
Heat Index: 32°   Visibility: 3mi
Dew Point: 32°   Wind: 10mph
Humidity: 100%   Direction: 340°NNW
Pressure: 30.14"   Gusts: NA
Location:  39.0608°N, 87.1852°W
Report Text: KDCY 270655Z AUTO 34009KT 3SM -SN OVC006 00/00 A3014 RMK AO2 T10021002
Loading
Personal Weather Stations






























Interactive Weather Map New forecast layout! Learn more

10-Day Weather Forecast

Advertisements
Track Severe Weather on mobile